Time;durP1;ratioP1;P1;durP2;ratioP2;P2;SDS_P1;SDS_P2;PMS_P1;PMS_P2;Temp;Humidity;BMP_temperature;BMP_pressure;BME280_temperature;BME280_humidity;BME280_pressure;Samples;Min_cycle;Max_cycle;Signal;HPM_P1;HPM_P2
2021/09/14 00:02:17;;;;;;;;;;;17.80;99.90;;;;;;5035225;28;19909;-62
2021/09/14 00:04:42;;;;;;;;;;;17.70;99.90;;;;;;5034541;28;19905;-62
2021/09/14 00:07:08;;;;;;;;;;;17.50;99.90;;;;;;5034626;28;19931;-62
2021/09/14 00:09:33;;;;;;;;;;;17.40;99.90;;;;;;5034695;28;19905;-62
2021/09/14 00:11:59;;;;;;;;;;;17.30;99.90;;;;;;5034551;28;20310;-62
2021/09/14 00:14:25;;;;;;;;;;;17.20;99.90;;;;;;5034429;28;20322;-62
2021/09/14 00:16:50;;;;;;;;;;;17.20;99.90;;;;;;5034257;28;19911;-62
2021/09/14 00:19:16;;;;;;;;;;;17.10;99.90;;;;;;5034305;28;19951;-62
2021/09/14 00:21:42;;;;;;;;;;;17.10;99.90;;;;;;5034243;28;19912;-62
2021/09/14 00:24:08;;;;;;;;;;;17.00;99.90;;;;;;5034160;28;19905;-62
2021/09/14 00:26:33;;;;;;;;;;;17.00;99.90;;;;;;5034371;28;19905;-63
2021/09/14 00:29:00;;;;;;;;;;;16.90;99.90;;;;;;5034191;28;19988;-61
2021/09/14 00:31:26;;;;;;;;;;;16.90;99.90;;;;;;5033987;28;19995;-62
2021/09/14 00:33:51;;;;;;;;;;;16.80;99.90;;;;;;5034121;28;20397;-62
2021/09/14 00:36:17;;;;;;;;;;;16.80;99.90;;;;;;5033933;28;20362;-62
2021/09/14 00:38:43;;;;;;;;;;;16.70;99.90;;;;;;5033838;28;19912;-60
2021/09/14 00:41:08;;;;;;;;;;;16.80;99.90;;;;;;5032994;28;19909;-62
2021/09/14 00:43:34;;;;;;;;;;;16.70;99.90;;;;;;5033781;28;20350;-62
2021/09/14 00:45:59;;;;;;;;;;;16.80;99.90;;;;;;5032416;28;19905;-62
2021/09/14 00:48:25;;;;;;;;;;;16.80;99.90;;;;;;5034116;28;19936;-62
2021/09/14 00:50:50;;;;;;;;;;;16.80;99.90;;;;;;5033946;28;19909;-62
2021/09/14 00:53:16;;;;;;;;;;;16.80;99.90;;;;;;5033536;28;20366;-62
2021/09/14 00:55:42;;;;;;;;;;;16.80;99.90;;;;;;5033836;28;19959;-62
2021/09/14 00:58:07;;;;;;;;;;;16.70;99.90;;;;;;5031336;28;20004;-62
2021/09/14 01:00:33;;;;;;;;;;;16.80;99.90;;;;;;5033737;28;19915;-61
2021/09/14 01:02:59;;;;;;;;;;;16.80;99.90;;;;;;5033666;28;20000;-62
2021/09/14 01:05:25;;;;;;;;;;;16.80;99.90;;;;;;5033682;28;20350;-62
2021/09/14 01:07:51;;;;;;;;;;;16.80;99.90;;;;;;5033816;28;19955;-62
2021/09/14 01:10:16;;;;;;;;;;;16.90;99.90;;;;;;5033675;28;19916;-62
2021/09/14 01:12:42;;;;;;;;;;;16.90;99.90;;;;;;5033453;28;19909;-61
2021/09/14 01:15:08;;;;;;;;;;;17.00;99.90;;;;;;5033361;28;19913;-62
2021/09/14 01:17:34;;;;;;;;;;;17.00;99.90;;;;;;5031879;28;20407;-62
2021/09/14 01:19:59;;;;;;;;;;;17.20;99.90;;;;;;5032964;28;19940;-62
2021/09/14 01:22:29;;;;;;;;;;;17.10;99.90;;;;;;5031756;28;19912;-62
2021/09/14 01:24:54;;;;;;;;;;;17.20;99.90;;;;;;5033149;28;19905;-63
2021/09/14 01:27:20;;;;;;;;;;;17.10;99.90;;;;;;5032832;28;20019;-62
2021/09/14 01:32:29;;;;;;;;;;;17.00;99.90;;;;;;5033282;28;19911;-62
2021/09/14 01:34:55;;;;;;;;;;;16.90;99.90;;;;;;5033032;28;20003;-62
2021/09/14 01:37:20;;;;;;;;;;;17.10;99.90;;;;;;5032780;28;20370;-63
2021/09/14 01:39:46;;;;;;;;;;;17.20;99.90;;;;;;5032736;28;19967;-62
2021/09/14 01:42:11;;;;;;;;;;;17.20;99.90;;;;;;5031416;28;20007;-62
2021/09/14 01:44:37;;;;;;;;;;;17.10;99.90;;;;;;5032801;28;20004;-63
2021/09/14 01:47:02;;;;;;;;;;;17.10;99.90;;;;;;5032661;28;19905;-63
2021/09/14 01:49:28;;;;;;;;;;;17.00;99.90;;;;;;5032928;28;19905;-62
2021/09/14 01:51:53;;;;;;;;;;;17.00;99.90;;;;;;5033019;28;19905;-62
2021/09/14 01:54:19;;;;;;;;;;;16.90;99.90;;;;;;5032696;28;19905;-62
2021/09/14 01:56:44;;;;;;;;;;;16.90;99.90;;;;;;5032628;28;19995;-61
2021/09/14 01:59:11;;;;;;;;;;;16.80;99.90;;;;;;5032799;28;19905;-63
2021/09/14 02:01:41;;;;;;;;;;;16.70;99.90;;;;;;5032909;28;20360;-63
2021/09/14 02:04:13;;;;;;;;;;;16.70;99.90;;;;;;5032808;28;19905;-62
2021/09/14 02:58:45;;;;;;;;;;;17.00;99.90;;;;;;5036311;28;19905;-63
2021/09/14 03:01:12;;;;;;;;;;;17.00;99.90;;;;;;5035547;28;19955;-63
2021/09/14 03:03:40;;;;;;;;;;;17.00;99.90;;;;;;5035626;28;19905;-63
2021/09/14 03:06:05;;;;;;;;;;;16.90;99.90;;;;;;5035617;28;20285;-62
2021/09/14 03:08:33;;;;;;;;;;;16.90;99.90;;;;;;5035424;28;19993;-63
2021/09/14 03:11:09;;;;;;;;;;;16.90;99.90;;;;;;5035526;28;19936;-62
2021/09/14 03:13:35;;;;;;;;;;;16.90;99.90;;;;;;5035581;28;20366;-61
2021/09/14 03:16:01;;;;;;;;;;;16.90;99.90;;;;;;5035319;28;20003;-60
2021/09/14 03:18:27;;;;;;;;;;;16.90;99.90;;;;;;5035412;28;19944;-61
2021/09/14 03:20:52;;;;;;;;;;;16.80;99.90;;;;;;5034241;28;19920;-61
2021/09/14 03:23:18;;;;;;;;;;;16.70;99.90;;;;;;5035878;28;20251;-61
2021/09/14 03:25:43;;;;;;;;;;;16.70;99.90;;;;;;5035171;28;19909;-62
2021/09/14 03:28:09;;;;;;;;;;;16.70;99.90;;;;;;5035024;28;19905;-62
2021/09/14 03:30:34;;;;;;;;;;;16.70;99.90;;;;;;5035166;28;19940;-62
2021/09/14 03:33:01;;;;;;;;;;;16.70;99.90;;;;;;5035071;28;19912;-64
2021/09/14 03:35:27;;;;;;;;;;;16.70;99.90;;;;;;5035065;28;19932;-62
2021/09/14 03:37:53;;;;;;;;;;;16.60;99.90;;;;;;5034806;28;19913;-62
2021/09/14 03:40:18;;;;;;;;;;;16.60;99.90;;;;;;5033448;28;19909;-62
2021/09/14 03:42:44;;;;;;;;;;;16.60;99.90;;;;;;5034946;28;19913;-62
2021/09/14 03:45:09;;;;;;;;;;;16.60;99.90;;;;;;5035243;28;19905;-62
2021/09/14 03:47:35;;;;;;;;;;;16.60;99.90;;;;;;5035016;28;19916;-62
2021/09/14 03:50:00;;;;;;;;;;;16.60;99.90;;;;;;5033662;28;19995;-61
2021/09/14 03:52:26;;;;;;;;;;;16.60;99.90;;;;;;5035659;28;19918;-62
2021/09/14 03:54:51;;;;;;;;;;;16.60;99.90;;;;;;5035438;28;20002;-62
2021/09/14 03:57:17;;;;;;;;;;;16.60;99.90;;;;;;5034966;28;19905;-62
2021/09/14 03:59:42;;;;;;;;;;;16.60;99.90;;;;;;5033241;28;20270;-61
2021/09/14 04:02:16;;;;;;;;;;;16.60;99.90;;;;;;5034484;28;20011;-62
2021/09/14 04:07:38;;;;;;;;;;;16.50;99.90;;;;;;5035094;28;19909;-62
2021/09/14 04:10:04;;;;;;;;;;;16.70;99.90;;;;;;5034440;28;19999;-61
2021/09/14 04:12:30;;;;;;;;;;;16.60;99.90;;;;;;5033130;28;19905;-62
2021/09/14 04:14:55;;;;;;;;;;;16.50;99.90;;;;;;5034650;28;19905;-63
2021/09/14 04:17:21;;;;;;;;;;;16.40;99.90;;;;;;5032906;28;19905;-63
2021/09/14 04:19:47;;;;;;;;;;;16.30;99.90;;;;;;5034347;28;20324;-63
2021/09/14 04:22:12;;;;;;;;;;;16.20;99.90;;;;;;5034100;28;19913;-60
2021/09/14 04:24:38;;;;;;;;;;;16.10;99.90;;;;;;5034115;28;19905;-62
2021/09/14 04:27:04;;;;;;;;;;;16.20;99.90;;;;;;5034099;28;20015;-63
2021/09/14 04:29:29;;;;;;;;;;;16.10;99.90;;;;;;5034086;28;20365;-62
2021/09/14 04:31:55;;;;;;;;;;;16.20;99.90;;;;;;5034063;28;19912;-62
2021/09/14 04:34:20;;;;;;;;;;;16.20;99.90;;;;;;5034018;28;20376;-61
2021/09/14 04:36:46;;;;;;;;;;;16.20;99.90;;;;;;5034306;28;19905;-62
2021/09/14 04:39:11;;;;;;;;;;;16.20;99.90;;;;;;5032381;28;19920;-62
2021/09/14 04:41:37;;;;;;;;;;;16.20;99.90;;;;;;5033997;28;20255;-63
2021/09/14 04:44:02;;;;;;;;;;;16.20;99.90;;;;;;5033734;28;19909;-63
2021/09/14 04:46:28;;;;;;;;;;;16.20;99.90;;;;;;5033791;28;19905;-63
2021/09/14 04:48:53;;;;;;;;;;;16.20;99.90;;;;;;5033926;28;19959;-62
2021/09/14 04:51:19;;;;;;;;;;;16.30;99.90;;;;;;5033541;28;19912;-63
2021/09/14 04:53:44;;;;;;;;;;;16.30;99.90;;;;;;5033633;28;19944;-62
2021/09/14 04:56:10;;;;;;;;;;;16.40;99.90;;;;;;5033445;28;19958;-63
2021/09/14 04:58:39;;;;;;;;;;;16.40;99.90;;;;;;5033364;28;20388;-62
2021/09/14 05:01:04;;;;;;;;;;;16.40;99.90;;;;;;5033281;28;20282;-62
2021/09/14 05:03:30;;;;;;;;;;;16.30;99.90;;;;;;5033213;28;20008;-62
2021/09/14 05:05:56;;;;;;;;;;;16.30;99.90;;;;;;5033496;28;19905;-62
2021/09/14 05:08:22;;;;;;;;;;;16.30;99.90;;;;;;5033348;28;20339;-62
2021/09/14 05:10:48;;;;;;;;;;;16.20;99.90;;;;;;5033518;28;19911;-63
2021/09/14 05:13:13;;;;;;;;;;;16.20;99.90;;;;;;5033179;28;19905;-63
2021/09/14 05:15:39;;;;;;;;;;;16.20;99.90;;;;;;5033077;28;19905;-62
2021/09/14 05:18:10;;;;;;;;;;;16.20;99.90;;;;;;5031735;28;19905;-62
2021/09/14 05:20:36;;;;;;;;;;;16.20;99.90;;;;;;5033511;28;19915;-62
2021/09/14 05:23:15;;;;;;;;;;;16.20;99.90;;;;;;5033650;28;19905;-63
2021/09/14 05:25:42;;;;;;;;;;;16.30;99.90;;;;;;5033848;28;20101;-63
2021/09/14 05:28:09;;;;;;;;;;;16.30;99.90;;;;;;5033363;28;19943;-62
2021/09/14 05:30:35;;;;;;;;;;;16.30;99.90;;;;;;5033413;28;19905;-63
2021/09/14 05:33:00;;;;;;;;;;;16.30;99.90;;;;;;5033433;28;20312;-63
2021/09/14 05:35:36;;;;;;;;;;;16.30;99.90;;;;;;5033061;28;19912;-63
2021/09/14 05:38:01;;;;;;;;;;;16.30;99.90;;;;;;5033227;28;20346;-63
2021/09/14 05:40:27;;;;;;;;;;;16.30;99.90;;;;;;5033386;28;19905;-63
2021/09/14 05:42:52;;;;;;;;;;;16.30;99.90;;;;;;5033260;28;19909;-63
2021/09/14 05:45:18;;;;;;;;;;;16.30;99.90;;;;;;5032598;28;19905;-63
2021/09/14 05:47:43;;;;;;;;;;;16.30;99.90;;;;;;5032765;28;19912;-61
2021/09/14 05:50:09;;;;;;;;;;;16.30;99.90;;;;;;5033049;28;19905;-66
2021/09/14 05:52:34;;;;;;;;;;;16.30;99.90;;;;;;5033222;28;19992;-65
2021/09/14 05:55:00;;;;;;;;;;;16.30;99.90;;;;;;5033696;28;20086;-68
2021/09/14 05:57:25;;;;;;;;;;;16.40;99.90;;;;;;5033441;28;19931;-67
2021/09/14 05:59:51;;;;;;;;;;;16.40;99.90;;;;;;5033245;28;19909;-66
2021/09/14 06:02:18;;;;;;;;;;;16.40;99.90;;;;;;5033233;28;20377;-66
2021/09/14 06:04:44;;;;;;;;;;;16.50;99.90;;;;;;5033300;28;19967;-69
2021/09/14 06:07:10;;;;;;;;;;;16.50;99.90;;;;;;5033105;28;20358;-69
2021/09/14 06:09:35;;;;;;;;;;;16.60;99.90;;;;;;5032551;28;19935;-66
2021/09/14 06:12:01;;;;;;;;;;;16.60;99.90;;;;;;5031453;28;19944;-69
2021/09/14 06:14:26;;;;;;;;;;;16.70;99.90;;;;;;5032780;28;19974;-62
2021/09/14 06:16:52;;;;;;;;;;;17.00;99.90;;;;;;5034010;28;19920;-65
2021/09/14 06:19:18;;;;;;;;;;;17.00;99.90;;;;;;5033298;28;20345;-67
2021/09/14 06:21:44;;;;;;;;;;;17.00;99.90;;;;;;5033788;28;20344;-67
2021/09/14 06:24:09;;;;;;;;;;;17.10;99.90;;;;;;5033396;28;20023;-67
2021/09/14 06:26:35;;;;;;;;;;;17.10;99.90;;;;;;5033715;28;20323;-65
2021/09/14 06:29:01;;;;;;;;;;;17.10;99.90;;;;;;5033300;28;19996;-67
2021/09/14 06:31:26;;;;;;;;;;;17.20;99.90;;;;;;5031242;28;19905;-67
2021/09/14 06:33:52;;;;;;;;;;;17.40;99.90;;;;;;5032501;28;20467;-64
2021/09/14 06:36:17;;;;;;;;;;;17.40;99.90;;;;;;5033029;28;19905;-66
2021/09/14 06:38:43;;;;;;;;;;;17.40;99.90;;;;;;5032099;28;19917;-63
2021/09/14 06:41:08;;;;;;;;;;;17.50;99.90;;;;;;5032451;28;19916;-63
2021/09/14 06:43:34;;;;;;;;;;;17.60;99.90;;;;;;5032389;28;19912;-62
2021/09/14 06:45:59;;;;;;;;;;;17.50;99.90;;;;;;5032743;28;19912;-65
2021/09/14 06:48:25;;;;;;;;;;;17.70;99.90;;;;;;5032463;28;20361;-67
2021/09/14 06:50:50;;;;;;;;;;;17.70;99.90;;;;;;5032679;28;20326;-68
2021/09/14 06:53:17;;;;;;;;;;;17.80;99.90;;;;;;5032296;28;19995;-64
2021/09/14 06:55:42;;;;;;;;;;;17.80;99.90;;;;;;5032664;28;19909;-64
2021/09/14 06:58:08;;;;;;;;;;;17.80;99.90;;;;;;5036026;28;20290;-64
2021/09/14 07:00:35;;;;;;;;;;;18.00;99.90;;;;;;5036077;28;20000;-60
2021/09/14 07:03:00;;;;;;;;;;;18.00;99.90;;;;;;5035356;28;19905;-62
2021/09/14 07:05:26;;;;;;;;;;;18.00;99.90;;;;;;5036746;28;19911;-67
2021/09/14 07:07:52;;;;;;;;;;;18.10;99.90;;;;;;5036810;28;20004;-66
2021/09/14 07:10:17;;;;;;;;;;;18.10;99.90;;;;;;5037461;28;19912;-68
2021/09/14 07:12:43;;;;;;;;;;;18.00;99.90;;;;;;5036728;28;19913;-68
2021/09/14 07:15:08;;;;;;;;;;;18.10;99.90;;;;;;5036533;28;20282;-69
2021/09/14 07:17:37;;;;;;;;;;;18.20;99.90;;;;;;5035923;28;19920;-69
2021/09/14 07:20:03;;;;;;;;;;;18.20;99.90;;;;;;5034495;28;19963;-69
2021/09/14 07:22:29;;;;;;;;;;;18.20;99.90;;;;;;5036032;28;19909;-69
2021/09/14 07:24:54;;;;;;;;;;;18.20;99.90;;;;;;5034277;28;19923;-59
2021/09/14 07:27:20;;;;;;;;;;;18.30;99.90;;;;;;5035398;28;19904;-60
2021/09/14 07:29:45;;;;;;;;;;;18.30;99.90;;;;;;5035513;28;19920;-64
2021/09/14 07:32:11;;;;;;;;;;;18.40;99.90;;;;;;5035600;28;19931;-63
2021/09/14 07:34:36;;;;;;;;;;;18.60;99.90;;;;;;5035879;28;19905;-65
2021/09/14 07:37:02;;;;;;;;;;;18.70;99.90;;;;;;5035733;28;19909;-65
2021/09/14 07:39:28;;;;;;;;;;;18.70;99.90;;;;;;5035039;28;19913;-66
2021/09/14 07:41:53;;;;;;;;;;;18.80;99.90;;;;;;5035110;28;19928;-64
2021/09/14 07:44:19;;;;;;;;;;;18.80;99.90;;;;;;5035240;28;19905;-65
2021/09/14 07:46:44;;;;;;;;;;;18.90;99.90;;;;;;5035170;28;20269;-64
2021/09/14 07:49:10;;;;;;;;;;;19.00;99.90;;;;;;5035550;28;20003;-66
2021/09/14 07:51:36;;;;;;;;;;;19.00;99.90;;;;;;5034050;28;19945;-64
2021/09/14 07:54:02;;;;;;;;;;;19.10;99.90;;;;;;5035718;28;19906;-65
2021/09/14 07:56:28;;;;;;;;;;;19.20;99.90;;;;;;5035095;28;19931;-65
2021/09/14 07:58:54;;;;;;;;;;;19.30;99.90;;;;;;5035261;28;20310;-66
2021/09/14 08:01:19;;;;;;;;;;;19.30;99.90;;;;;;5033661;28;19916;-64
2021/09/14 08:03:45;;;;;;;;;;;19.40;99.90;;;;;;5034856;28;19912;-65
2021/09/14 08:06:10;;;;;;;;;;;19.40;99.90;;;;;;5033475;28;19905;-61
2021/09/14 08:08:35;;;;;;;;;;;19.50;99.90;;;;;;5034731;28;20389;-66
2021/09/14 08:11:01;;;;;;;;;;;19.60;99.90;;;;;;5034553;28;19954;-65
2021/09/14 08:13:26;;;;;;;;;;;19.70;99.90;;;;;;5034586;28;19905;-62
2021/09/14 08:15:52;;;;;;;;;;;19.80;99.90;;;;;;5034590;28;19908;-65
2021/09/14 08:18:17;;;;;;;;;;;19.90;99.90;;;;;;5034489;28;19905;-64
2021/09/14 08:20:43;;;;;;;;;;;20.00;99.90;;;;;;5034544;28;19909;-65
2021/09/14 08:23:08;;;;;;;;;;;20.10;99.90;;;;;;5034706;28;19909;-67
2021/09/14 08:25:34;;;;;;;;;;;20.20;99.90;;;;;;5035099;28;19980;-68
2021/09/14 08:28:00;;;;;;;;;;;20.40;99.90;;;;;;5034580;28;19905;-70
2021/09/14 08:30:25;;;;;;;;;;;20.50;99.90;;;;;;5034356;28;19912;-64
2021/09/14 08:32:51;;;;;;;;;;;20.70;99.90;;;;;;5034340;28;19955;-67
2021/09/14 08:35:17;;;;;;;;;;;20.80;99.90;;;;;;5034353;28;19905;-67
2021/09/14 08:37:42;;;;;;;;;;;20.80;99.90;;;;;;5032808;28;20276;-65
2021/09/14 08:40:08;;;;;;;;;;;21.00;99.90;;;;;;5034009;28;19917;-67
2021/09/14 08:42:35;;;;;;;;;;;21.80;99.90;;;;;;5033826;28;19999;-67
2021/09/14 08:45:02;;;;;;;;;;;23.80;99.90;;;;;;5033825;28;19950;-66
2021/09/14 08:47:28;;;;;;;;;;;25.80;99.90;;;;;;5033783;28;19912;-66
2021/09/14 08:49:54;;;;;;;;;;;27.80;98.20;;;;;;5033823;28;19905;-67
2021/09/14 08:52:19;;;;;;;;;;;29.30;95.30;;;;;;5033801;28;19905;-66
2021/09/14 08:54:45;;;;;;;;;;;30.30;92.60;;;;;;5034002;28;19905;-64
2021/09/14 08:57:11;;;;;;;;;;;31.30;91.00;;;;;;5033707;28;19909;-64
2021/09/14 08:59:43;;;;;;;;;;;32.60;88.20;;;;;;5033593;28;19905;-65
2021/09/14 09:02:09;;;;;;;;;;;33.60;83.80;;;;;;5033897;28;19995;-65
2021/09/14 09:04:35;;;;;;;;;;;34.40;80.40;;;;;;5032428;28;20318;-66
2021/09/14 09:07:00;;;;;;;;;;;34.60;77.90;;;;;;5033343;28;19988;-65
2021/09/14 09:09:26;;;;;;;;;;;33.70;77.70;;;;;;5032279;28;19912;-64
2021/09/14 09:12:05;;;;;;;;;;;33.00;78.70;;;;;;5032157;28;19909;-65
2021/09/14 09:14:35;;;;;;;;;;;33.00;79.00;;;;;;5031694;28;19915;-67
2021/09/14 09:17:04;;;;;;;;;;;33.50;77.80;;;;;;5033594;28;19905;-67
2021/09/14 09:19:30;;;;;;;;;;;34.00;76.30;;;;;;5031333;28;19905;-67
2021/09/14 09:21:57;;;;;;;;;;;34.00;75.30;;;;;;5033247;28;19909;-68
2021/09/14 09:24:23;;;;;;;;;;;34.10;75.20;;;;;;5033288;28;19962;-67
2021/09/14 09:26:48;;;;;;;;;;;34.00;75.10;;;;;;5033089;28;19992;-69
2021/09/14 09:29:20;;;;;;;;;;;34.20;74.40;;;;;;5033392;28;19931;-68
2021/09/14 09:31:47;;;;;;;;;;;34.80;73.40;;;;;;5033467;28;19905;-70
2021/09/14 09:34:13;;;;;;;;;;;35.30;72.50;;;;;;5032891;28;19905;-68
2021/09/14 09:36:40;;;;;;;;;;;36.10;71.10;;;;;;5033137;28;19944;-67
2021/09/14 09:39:10;;;;;;;;;;;36.30;69.90;;;;;;5033060;28;20266;-66
2021/09/14 09:41:38;;;;;;;;;;;36.40;68.90;;;;;;5032705;28;19909;-67
2021/09/14 09:44:05;;;;;;;;;;;35.90;69.00;;;;;;5032965;28;20346;-67
2021/09/14 09:46:31;;;;;;;;;;;36.00;69.20;;;;;;5033349;28;19947;-68
2021/09/14 09:48:56;;;;;;;;;;;36.60;68.40;;;;;;5031634;28;20301;-64
2021/09/14 09:51:22;;;;;;;;;;;37.30;67.00;;;;;;5033150;28;20000;-67
2021/09/14 09:53:48;;;;;;;;;;;36.70;65.80;;;;;;5032992;28;19905;-69
2021/09/14 09:56:14;;;;;;;;;;;36.00;66.80;;;;;;5033175;28;19912;-69
2021/09/14 09:58:40;;;;;;;;;;;36.70;66.50;;;;;;5031427;28;19905;-71
2021/09/14 10:01:08;;;;;;;;;;;36.90;66.00;;;;;;5033047;28;20266;-67
2021/09/14 10:03:36;;;;;;;;;;;37.30;65.60;;;;;;5031495;28;19912;-69
2021/09/14 10:06:09;;;;;;;;;;;37.30;64.90;;;;;;5033239;28;19941;-68
2021/09/14 10:08:35;;;;;;;;;;;36.80;65.50;;;;;;5032810;28;19905;-68
2021/09/14 10:11:00;;;;;;;;;;;37.20;65.20;;;;;;5032693;28;20424;-68
2021/09/14 10:13:36;;;;;;;;;;;37.80;64.40;;;;;;5032730;28;19991;-70
2021/09/14 10:16:02;;;;;;;;;;;37.70;63.80;;;;;;5032544;28;19912;-64
2021/09/14 10:18:29;;;;;;;;;;;37.80;63.70;;;;;;5032598;28;19905;-66
2021/09/14 10:20:55;;;;;;;;;;;37.90;63.00;;;;;;5032524;28;19909;-67
2021/09/14 10:23:21;;;;;;;;;;;37.20;64.10;;;;;;5032353;28;19905;-69
2021/09/14 10:25:51;;;;;;;;;;;36.20;64.80;;;;;;5032482;28;19905;-67
2021/09/14 10:28:18;;;;;;;;;;;35.00;67.00;;;;;;5032404;28;19944;-66
2021/09/14 10:30:43;;;;;;;;;;;34.00;68.80;;;;;;5034469;28;20405;-66
2021/09/14 10:33:19;;;;;;;;;;;33.60;69.40;;;;;;5036542;28;19905;-66
2021/09/14 10:35:46;;;;;;;;;;;33.30;70.00;;;;;;5036120;28;19963;-65
2021/09/14 10:38:13;;;;;;;;;;;32.20;71.90;;;;;;5036216;28;19959;-65
2021/09/14 10:40:45;;;;;;;;;;;32.20;72.40;;;;;;5036038;28;19937;-66
2021/09/14 10:43:24;;;;;;;;;;;32.70;71.40;;;;;;5036093;28;19998;-66
2021/09/14 10:45:50;;;;;;;;;;;33.40;70.20;;;;;;5035969;28;19951;-68
2021/09/14 10:48:22;;;;;;;;;;;33.70;68.80;;;;;;5035965;28;19963;-66
2021/09/14 10:50:48;;;;;;;;;;;33.40;69.80;;;;;;5035804;28;19905;-68
2021/09/14 10:53:28;;;;;;;;;;;32.70;70.50;;;;;;5035743;28;20359;-68
2021/09/14 10:55:55;;;;;;;;;;;32.30;72.00;;;;;;5035847;28;19905;-67
2021/09/14 10:58:21;;;;;;;;;;;32.00;72.30;;;;;;5035719;28;19905;-68
2021/09/14 11:00:49;;;;;;;;;;;31.60;73.20;;;;;;5035522;28;19909;-69
2021/09/14 11:03:17;;;;;;;;;;;31.20;74.10;;;;;;5035945;28;19912;-65
2021/09/14 11:05:46;;;;;;;;;;;30.40;75.50;;;;;;5035886;28;19996;-65
2021/09/14 11:08:11;;;;;;;;;;;29.60;77.50;;;;;;5035585;28;19905;-65
2021/09/14 11:10:41;;;;;;;;;;;29.10;79.30;;;;;;5035734;28;19913;-65
2021/09/14 11:13:17;;;;;;;;;;;28.80;80.10;;;;;;5036080;28;20314;-67
2021/09/14 11:15:42;;;;;;;;;;;28.20;81.00;;;;;;5035942;28;19905;-70
2021/09/14 11:18:08;;;;;;;;;;;27.80;83.00;;;;;;5034411;28;19912;-68
2021/09/14 11:20:35;;;;;;;;;;;27.60;83.90;;;;;;5035510;28;20330;-68
2021/09/14 11:23:02;;;;;;;;;;;27.40;84.90;;;;;;5035545;28;19983;-69
2021/09/14 11:25:31;;;;;;;;;;;27.30;85.50;;;;;;5035619;28;19951;-68
2021/09/14 11:28:00;;;;;;;;;;;27.20;86.10;;;;;;5035623;28;19905;-70
2021/09/14 11:30:26;;;;;;;;;;;27.10;86.90;;;;;;5034834;28;19940;-68
2021/09/14 11:32:52;;;;;;;;;;;27.00;87.50;;;;;;5035407;28;20282;-68
2021/09/14 11:35:18;;;;;;;;;;;26.90;88.10;;;;;;5035142;28;20346;-68
2021/09/14 11:37:44;;;;;;;;;;;26.80;88.70;;;;;;5035260;28;20354;-67
2021/09/14 11:40:19;;;;;;;;;;;26.70;89.10;;;;;;5034958;28;20007;-67
2021/09/14 11:42:51;;;;;;;;;;;26.50;89.90;;;;;;5034317;28;19944;-62
2021/09/14 11:45:17;;;;;;;;;;;26.20;90.40;;;;;;5035311;28;19905;-62
2021/09/14 11:47:43;;;;;;;;;;;25.90;91.00;;;;;;5035397;28;19909;-62
2021/09/14 11:50:10;;;;;;;;;;;26.00;91.40;;;;;;5035054;28;20004;-62
2021/09/14 11:52:35;;;;;;;;;;;25.90;91.20;;;;;;5035361;28;19905;-63
2021/09/14 11:55:06;;;;;;;;;;;26.00;91.40;;;;;;5035064;28;19911;-63
2021/09/14 11:57:32;;;;;;;;;;;25.90;91.50;;;;;;5035550;28;19905;-63
2021/09/14 11:59:57;;;;;;;;;;;25.90;91.80;;;;;;5034983;28;19968;-61
2021/09/14 12:02:23;;;;;;;;;;;25.90;92.00;;;;;;5034634;28;19987;-63
2021/09/14 12:04:57;;;;;;;;;;;25.90;91.60;;;;;;5034190;28;19939;-64
2021/09/14 12:07:23;;;;;;;;;;;26.00;91.50;;;;;;5032931;28;20055;-64
2021/09/14 12:09:48;;;;;;;;;;;26.10;91.50;;;;;;5033934;28;20232;-62
2021/09/14 12:12:14;;;;;;;;;;;26.30;91.40;;;;;;5033623;28;19905;-62
2021/09/14 12:14:40;;;;;;;;;;;26.50;91.00;;;;;;5033668;28;19916;-64
2021/09/14 12:17:07;;;;;;;;;;;26.40;91.10;;;;;;5032619;28;19905;-62
2021/09/14 12:19:33;;;;;;;;;;;26.60;90.80;;;;;;5035415;28;19981;-63
2021/09/14 12:21:59;;;;;;;;;;;26.80;90.70;;;;;;5033081;28;20000;-63
2021/09/14 12:24:25;;;;;;;;;;;27.00;90.40;;;;;;5034236;28;19994;-62
2021/09/14 12:26:51;;;;;;;;;;;27.00;90.40;;;;;;5034005;28;19912;-62
2021/09/14 12:29:18;;;;;;;;;;;26.80;90.80;;;;;;5033829;28;20329;-62
2021/09/14 12:31:44;;;;;;;;;;;26.70;90.80;;;;;;5034019;28;19915;-63
2021/09/14 12:34:09;;;;;;;;;;;26.70;91.00;;;;;;5033824;28;19995;-62
2021/09/14 12:36:35;;;;;;;;;;;26.70;91.20;;;;;;5033987;28;19905;-64
2021/09/14 12:39:02;;;;;;;;;;;26.70;91.20;;;;;;5034263;28;19913;-63
2021/09/14 12:41:27;;;;;;;;;;;26.60;91.20;;;;;;5034110;28;19916;-62
2021/09/14 12:43:53;;;;;;;;;;;26.60;91.30;;;;;;5033943;28;19909;-63
2021/09/14 12:46:19;;;;;;;;;;;26.60;91.50;;;;;;5033756;28;20351;-63
2021/09/14 12:48:45;;;;;;;;;;;26.60;91.50;;;;;;5033633;28;19912;-63
2021/09/14 12:51:11;;;;;;;;;;;26.60;91.20;;;;;;5033655;28;19905;-63
2021/09/14 12:53:37;;;;;;;;;;;26.60;91.20;;;;;;5033430;28;19905;-62
2021/09/14 12:56:03;;;;;;;;;;;26.60;91.10;;;;;;5033565;28;19912;-63
2021/09/14 12:58:30;;;;;;;;;;;26.60;91.10;;;;;;5031724;28;19912;-62
2021/09/14 13:00:55;;;;;;;;;;;26.60;91.20;;;;;;5033719;28;20373;-63
2021/09/14 13:03:21;;;;;;;;;;;26.60;91.30;;;;;;5033813;28;20046;-62
2021/09/14 13:05:46;;;;;;;;;;;26.60;91.30;;;;;;5033510;28;19946;-63
2021/09/14 13:08:12;;;;;;;;;;;26.60;91.40;;;;;;5033533;28;19909;-62
2021/09/14 13:10:37;;;;;;;;;;;26.60;91.40;;;;;;5033487;28;19905;-63
2021/09/14 13:18:33;;;;;;;;;;;26.70;91.30;;;;;;5033200;28;20376;-62
2021/09/14 13:20:58;;;;;;;;;;;26.70;91.30;;;;;;5032898;28;19948;-62
2021/09/14 13:23:25;;;;;;;;;;;26.60;91.20;;;;;;5031742;28;19921;-62
2021/09/14 13:25:51;;;;;;;;;;;26.70;91.30;;;;;;5033234;28;19936;-62
2021/09/14 13:28:17;;;;;;;;;;;26.80;91.60;;;;;;5033160;28;19955;-63
2021/09/14 13:30:42;;;;;;;;;;;27.00;91.90;;;;;;5034401;28;20274;-63
2021/09/14 13:33:08;;;;;;;;;;;27.10;91.80;;;;;;5032852;28;20267;-63
2021/09/14 13:35:33;;;;;;;;;;;27.30;91.90;;;;;;5033750;28;20373;-63
2021/09/14 13:37:59;;;;;;;;;;;27.50;91.70;;;;;;5033537;28;19905;-63
2021/09/14 13:40:24;;;;;;;;;;;27.60;91.10;;;;;;5033098;28;19909;-64
2021/09/14 13:42:57;;;;;;;;;;;27.60;91.10;;;;;;5033338;28;19956;-63
2021/09/14 13:48:07;;;;;;;;;;;27.60;91.50;;;;;;5032848;28;19912;-62
2021/09/14 13:50:33;;;;;;;;;;;27.50;91.10;;;;;;5033168;28;19909;-63
2021/09/14 13:52:58;;;;;;;;;;;27.30;91.60;;;;;;5033075;28;19909;-64
2021/09/14 13:55:24;;;;;;;;;;;27.20;91.90;;;;;;5032938;28;19913;-64
2021/09/14 13:57:50;;;;;;;;;;;27.10;92.10;;;;;;5033195;28;20006;-63
2021/09/14 14:00:16;;;;;;;;;;;27.10;92.40;;;;;;5032844;28;19905;-64
2021/09/14 14:02:41;;;;;;;;;;;27.10;92.60;;;;;;5032714;28;20408;-62
2021/09/14 14:05:07;;;;;;;;;;;27.00;92.60;;;;;;5034374;28;19905;-63
2021/09/14 14:07:33;;;;;;;;;;;27.00;92.60;;;;;;5037150;28;19913;-63
2021/09/14 14:09:58;;;;;;;;;;;27.00;92.60;;;;;;5037282;28;19905;-63
2021/09/14 14:12:24;;;;;;;;;;;27.10;92.70;;;;;;5036602;28;19931;-61
2021/09/14 14:14:49;;;;;;;;;;;27.10;92.60;;;;;;5036592;28;19905;-62
2021/09/14 14:17:15;;;;;;;;;;;27.10;92.60;;;;;;5036711;28;19905;-62
2021/09/14 14:19:40;;;;;;;;;;;27.20;92.70;;;;;;5036967;28;19951;-62
2021/09/14 14:22:06;;;;;;;;;;;27.10;92.50;;;;;;5037327;28;20060;-64
2021/09/14 14:24:31;;;;;;;;;;;27.20;92.50;;;;;;5036320;28;19970;-63
2021/09/14 14:26:57;;;;;;;;;;;27.20;92.50;;;;;;5035197;28;20362;-63
2021/09/14 14:29:22;;;;;;;;;;;27.30;92.50;;;;;;5037055;28;19911;-63
2021/09/14 14:31:48;;;;;;;;;;;27.30;92.40;;;;;;5036290;28;19909;-62
2021/09/14 14:34:13;;;;;;;;;;;27.10;92.50;;;;;;5036409;28;19909;-63
2021/09/14 14:36:39;;;;;;;;;;;27.00;92.60;;;;;;5036272;28;19913;-64
2021/09/14 14:39:04;;;;;;;;;;;26.90;92.90;;;;;;5036268;28;20277;-63
2021/09/14 14:41:30;;;;;;;;;;;26.90;92.90;;;;;;5036035;28;20441;-63
2021/09/14 14:43:55;;;;;;;;;;;26.80;93.10;;;;;;5035977;28;20373;-63
2021/09/14 14:46:21;;;;;;;;;;;26.80;93.10;;;;;;5036060;28;19905;-64
2021/09/14 14:48:46;;;;;;;;;;;26.70;93.20;;;;;;5036561;28;19988;-63
2021/09/14 14:51:11;;;;;;;;;;;26.70;93.30;;;;;;5035881;28;19905;-63
2021/09/14 14:53:37;;;;;;;;;;;26.70;93.50;;;;;;5036179;28;20376;-63
2021/09/14 14:56:03;;;;;;;;;;;26.60;93.70;;;;;;5035953;28;19909;-63
2021/09/14 14:58:28;;;;;;;;;;;26.60;93.70;;;;;;5035871;28;19905;-64
2021/09/14 15:00:54;;;;;;;;;;;26.60;93.90;;;;;;5035752;28;19943;-62
2021/09/14 15:03:20;;;;;;;;;;;26.60;94.00;;;;;;5035515;28;19924;-62
2021/09/14 15:05:46;;;;;;;;;;;26.60;94.10;;;;;;5035629;28;19911;-63
2021/09/14 15:08:11;;;;;;;;;;;26.50;94.30;;;;;;5036036;28;19905;-63
2021/09/14 15:10:37;;;;;;;;;;;26.50;94.40;;;;;;5035359;28;20285;-63
2021/09/14 15:13:02;;;;;;;;;;;26.50;94.30;;;;;;5035551;28;19909;-63
2021/09/14 15:15:28;;;;;;;;;;;26.40;94.70;;;;;;5035341;28;20016;-62
2021/09/14 15:17:53;;;;;;;;;;;26.40;94.50;;;;;;5034371;28;20358;-63